Time;durP1;ratioP1;P1;durP2;ratioP2;P2;SDS_P1;SDS_P2;PMS_P1;PMS_P2;Temp;Humidity;BMP_temperature;BMP_pressure;BME280_temperature;BME280_humidity;BME280_pressure;Samples;Min_cycle;Max_cycle;Signal;HPM_P1;HPM_P2
2023/06/14 00:03:31;;;;;;;;;;;;;;;25.02;33.21;101127.14;2322557;76;21658;-74
2023/06/14 00:06:33;;;;;;;;;;;;;;;24.99;33.28;101129.23;2322085;76;50275;-75
2023/06/14 00:09:35;;;;;;;;;;;;;;;24.99;33.26;101128.41;2293019;76;49598;-74
2023/06/14 00:12:37;;;;;;;;;;;;;;;25.01;33.31;101132.27;2293268;76;52512;-74
2023/06/14 00:15:38;;;;;;;;;;;;;;;24.98;33.32;101127.58;2293168;76;50283;-74
2023/06/14 00:18:40;;;;;;;;;;;;;;;24.99;33.28;101133.29;2293342;76;50368;-74
2023/06/14 00:21:43;;;;;;;;;;;;;;;24.98;33.32;101132.99;2267963;76;50897;-74
2023/06/14 00:24:44;;;;;;;;;;;;;;;24.99;33.29;101136.00;2322195;76;51511;-75
2023/06/14 00:27:46;;;;;;;;;;;;;;;25.01;33.31;101136.33;2292896;76;51505;-74
2023/06/14 00:30:48;;;;;;;;;;;;;;;24.99;33.33;101129.23;2322108;76;50616;-73
2023/06/14 00:33:50;;;;;;;;;;;;;;;25.00;33.34;101132.80;2292931;76;52687;-74
2023/06/14 00:36:51;;;;;;;;;;;;;;;24.99;33.36;101132.47;2293118;76;50268;-74
2023/06/14 00:39:53;;;;;;;;;;;;;;;24.99;33.37;101133.29;2290359;76;50772;-74
2023/06/14 00:42:54;;;;;;;;;;;;;;;24.99;33.40;101136.00;2278341;77;51442;-74
2023/06/14 00:45:56;;;;;;;;;;;;;;;25.00;33.43;101135.50;2253518;77;51860;-75
2023/06/14 00:48:57;;;;;;;;;;;;;;;24.98;33.51;101130.28;2297475;77;51485;-75
2023/06/14 00:52:00;;;;;;;;;;;;;;;24.99;33.48;101137.88;2297548;76;51362;-74
2023/06/14 00:55:01;;;;;;;;;;;;;;;24.98;33.53;101133.52;2297525;77;51520;-74
2023/06/14 00:58:03;;;;;;;;;;;;;;;24.99;33.51;101133.82;2278116;77;51022;-74
2023/06/14 01:01:04;;;;;;;;;;;;;;;24.98;33.56;101127.58;2297466;77;51421;-73
2023/06/14 01:04:06;;;;;;;;;;;;;;;24.98;33.61;101128.94;2278507;77;51441;-73
2023/06/14 01:07:13;;;;;;;;;;;;;;;24.98;33.64;101135.70;2278259;77;51415;-74
2023/06/14 01:10:33;;;;;;;;;;;;;;;24.98;33.69;101125.40;2297394;77;22214;-73
2023/06/14 01:13:35;;;;;;;;;;;;;;;24.97;33.67;101128.64;2297481;77;50258;-73
2023/06/14 01:16:39;;;;;;;;;;;;;;;24.98;33.72;101123.52;2297400;76;51643;-74
2023/06/14 01:19:42;;;;;;;;;;;;;;;24.98;33.74;101130.81;2297788;77;23038;-74
2023/06/14 01:22:54;;;;;;;;;;;;;;;24.97;33.74;101125.93;2297722;77;22406;-74
2023/06/14 01:25:56;;;;;;;;;;;;;;;24.97;33.81;101132.70;2297233;76;51474;-74
2023/06/14 01:28:58;;;;;;;;;;;;;;;24.98;33.82;101128.11;2278379;77;50400;-74
2023/06/14 01:32:00;;;;;;;;;;;;;;;24.98;33.85;101131.64;2297392;76;51547;-75
2023/06/14 01:35:03;;;;;;;;;;;;;;;24.97;33.87;101130.48;2297433;77;50769;-74
2023/06/14 01:38:05;;;;;;;;;;;;;;;24.98;33.86;101126.22;2297403;76;50322;-74
2023/06/14 01:41:06;;;;;;;;;;;;;;;24.97;33.87;101127.28;2297396;76;50255;-74
2023/06/14 01:44:08;;;;;;;;;;;;;;;24.97;33.91;101121.87;2297528;77;50618;-74
2023/06/14 01:47:09;;;;;;;;;;;;;;;24.96;33.93;101120.19;2278315;77;51152;-73
2023/06/14 01:50:11;;;;;;;;;;;;;;;24.96;33.93;101126.95;2297681;77;50406;-73
2023/06/14 01:53:13;;;;;;;;;;;;;;;24.95;33.96;101121.25;2297737;77;49939;-74
2023/06/14 01:56:14;;;;;;;;;;;;;;;24.95;34.03;101124.48;2298477;77;50156;-73
2023/06/14 01:59:16;;;;;;;;;;;;;;;24.96;34.09;101124.25;2280429;77;49660;-73
2023/06/14 02:02:17;;;;;;;;;;;;;;;24.95;34.19;101128.55;2279649;77;50280;-74
2023/06/14 02:05:19;;;;;;;;;;;;;;;24.95;34.18;101128.55;2279472;77;52761;-73
2023/06/14 02:08:21;;;;;;;;;;;;;;;24.96;34.22;101128.84;2278639;77;50104;-73
2023/06/14 02:11:23;;;;;;;;;;;;;;;24.94;34.29;101135.81;2283959;76;53556;-73
2023/06/14 02:14:24;;;;;;;;;;;;;;;24.95;34.28;101136.66;2297785;76;50307;-73
2023/06/14 02:17:26;;;;;;;;;;;;;;;24.95;34.28;101138.84;2322571;76;51483;-73
2023/06/14 02:20:28;;;;;;;;;;;;;;;24.96;34.32;101136.44;2293715;76;51421;-73
2023/06/14 02:23:29;;;;;;;;;;;;;;;24.93;34.36;101135.51;2293202;76;52432;-72
2023/06/14 02:26:31;;;;;;;;;;;;;;;24.94;34.35;101134.98;2323290;76;51530;-72
2023/06/14 02:29:33;;;;;;;;;;;;;;;24.94;34.41;101133.09;2298016;76;50671;-73
2023/06/14 02:32:35;;;;;;;;;;;;;;;24.94;34.39;101129.04;2322477;76;50634;-74
2023/06/14 02:35:37;;;;;;;;;;;;;;;24.94;34.37;101133.09;2268384;76;51225;-73
2023/06/14 02:38:39;;;;;;;;;;;;;;;24.94;34.39;101131.75;2298675;75;51550;-73
2023/06/14 02:41:40;;;;;;;;;;;;;;;24.95;34.49;101136.66;2350173;75;51302;-73
2023/06/14 02:48:20;;;;;;;;;;;;;;;24.93;34.48;101138.75;2336714;75;24293;-74
2023/06/14 02:51:22;;;;;;;;;;;;;;;24.93;34.42;101138.22;2295094;76;50410;-74
2023/06/14 02:54:23;;;;;;;;;;;;;;;24.92;34.47;101141.98;2324359;75;50469;-73
2023/06/14 02:57:25;;;;;;;;;;;;;;;24.91;34.62;101144.89;2294994;76;51231;-73
2023/06/14 03:00:30;;;;;;;;;;;;;;;24.91;34.55;101136.23;2295270;76;50120;-74
2023/06/14 03:03:30;;;;;;;;;;;;;;;24.91;34.56;101143.01;2295618;76;22914;-75
2023/06/14 03:06:31;;;;;;;;;;;;;;;24.91;34.54;101133.53;2324304;76;51522;-75
2023/06/14 03:09:33;;;;;;;;;;;;;;;24.90;34.56;101134.59;2304096;75;51414;-75
2023/06/14 03:12:36;;;;;;;;;;;;;;;24.91;34.60;101137.59;2267723;76;52629;-74
2023/06/14 03:15:38;;;;;;;;;;;;;;;24.93;34.58;101134.69;2322242;76;50311;-75
2023/06/14 03:18:40;;;;;;;;;;;;;;;24.92;34.62;101128.45;2321968;76;50665;-74
2023/06/14 03:21:44;;;;;;;;;;;;;;;24.91;34.61;101134.06;2322158;76;50337;-74
2023/06/14 03:24:45;;;;;;;;;;;;;;;24.90;34.68;101141.36;2322240;76;22372;-74
2023/06/14 03:27:46;;;;;;;;;;;;;;;24.91;34.65;101133.53;2322107;76;51542;-73
2023/06/14 03:30:48;;;;;;;;;;;;;;;24.92;34.66;101135.22;2293413;76;50324;-74
2023/06/14 03:33:49;;;;;;;;;;;;;;;24.90;34.67;101144.06;2293190;76;51433;-73
2023/06/14 03:36:51;;;;;;;;;;;;;;;24.90;34.73;101144.06;2292485;76;50977;-74
2023/06/14 03:39:54;;;;;;;;;;;;;;;24.90;34.74;101154.89;2341059;75;51628;-74
2023/06/14 03:42:55;;;;;;;;;;;;;;;24.91;34.75;101148.42;2334562;75;50393;-74
2023/06/14 03:45:57;;;;;;;;;;;;;;;24.91;34.73;101153.84;2364622;75;50645;-73
2023/06/14 03:48:58;;;;;;;;;;;;;;;24.90;34.76;101149.48;2364572;75;51541;-74
2023/06/14 03:52:00;;;;;;;;;;;;;;;24.90;34.78;101157.60;2334617;75;51512;-73
2023/06/14 03:55:02;;;;;;;;;;;;;;;24.90;34.76;101161.66;2364393;75;51419;-72
2023/06/14 03:58:04;;;;;;;;;;;;;;;24.90;34.80;101158.95;2364338;75;51539;-73
2023/06/14 04:01:06;;;;;;;;;;;;;;;24.88;34.92;101161.03;2334351;75;49625;-73
2023/06/14 04:04:08;;;;;;;;;;;;;;;24.88;34.82;101159.69;2334670;75;51547;-73
2023/06/14 04:07:11;;;;;;;;;;;;;;;24.89;34.80;101161.36;2334365;75;50213;-73
2023/06/14 04:10:13;;;;;;;;;;;;;;;24.88;34.89;101167.80;2338896;75;50529;-74
2023/06/14 04:13:15;;;;;;;;;;;;;;;24.89;34.92;101171.33;2290793;76;51046;-74
2023/06/14 04:16:16;;;;;;;;;;;;;;;24.89;34.92;101176.25;2293100;76;51574;-74
2023/06/14 04:19:18;;;;;;;;;;;;;;;24.91;34.95;101182.79;2322203;76;51536;-74
2023/06/14 04:22:19;;;;;;;;;;;;;;;24.89;34.90;101169.48;2322173;76;51480;-72
2023/06/14 04:25:22;;;;;;;;;;;;;;;24.89;34.89;101169.98;2293011;76;50990;-74
2023/06/14 04:28:25;;;;;;;;;;;;;;;24.89;34.89;101175.40;2293240;76;51514;-74
2023/06/14 04:31:29;;;;;;;;;;;;;;;24.89;34.94;101172.19;2322069;76;51531;-74
2023/06/14 04:34:33;;;;;;;;;;;;;;;24.88;34.89;101174.57;2294032;76;22946;-74
2023/06/14 04:37:33;;;;;;;;;;;;;;;24.90;34.85;101168.42;2293462;76;22378;-74
2023/06/14 04:40:36;;;;;;;;;;;;;;;24.93;34.82;101179.35;2293193;76;53311;-74
2023/06/14 04:43:38;;;;;;;;;;;;;;;24.94;35.07;101172.88;2300439;76;51594;-73
2023/06/14 04:46:48;;;;;;;;;;;;;;;24.94;35.35;101169.65;2297371;76;50769;-75
2023/06/14 04:49:52;;;;;;;;;;;;;;;24.98;35.57;101176.31;2297568;77;50691;-74
2023/06/14 04:52:53;;;;;;;;;;;;;;;25.03;35.78;101176.20;2279039;77;23143;-75
2023/06/14 04:55:55;;;;;;;;;;;;;;;25.08;35.60;101187.23;2297419;76;51508;-75
2023/06/14 04:58:56;;;;;;;;;;;;;;;25.12;35.42;101177.61;2297323;76;51433;-76
2023/06/14 05:01:58;;;;;;;;;;;;;;;25.16;35.38;101188.38;2297517;76;50256;-77
2023/06/14 05:05:01;;;;;;;;;;;;;;;25.11;35.14;101176.80;2297521;76;49822;-77
2023/06/14 05:08:03;;;;;;;;;;;;;;;25.10;35.01;101189.17;2333295;75;51574;-77
2023/06/14 05:11:05;;;;;;;;;;;;;;;25.02;35.01;101186.71;2301013;75;50650;-77
2023/06/14 05:14:06;;;;;;;;;;;;;;;24.84;35.08;101180.12;2318510;75;49453;-77
2023/06/14 05:17:08;;;;;;;;;;;;;;;24.81;35.17;101176.45;2350026;75;50608;-76
2023/06/14 05:20:12;;;;;;;;;;;;;;;24.75;35.16;101181.38;2332702;75;53210;-77
2023/06/14 05:23:14;;;;;;;;;;;;;;;24.70;35.20;101190.65;2333267;75;51462;-77
2023/06/14 05:26:16;;;;;;;;;;;;;;;24.63;35.24;101188.47;2332835;75;49501;-77
2023/06/14 05:29:17;;;;;;;;;;;;;;;24.65;35.20;101193.16;2333023;75;50681;-78
2023/06/14 05:32:19;;;;;;;;;;;;;;;24.66;35.22;101202.42;2356095;75;51469;-74
2023/06/14 05:35:23;;;;;;;;;;;;;;;24.69;35.17;101202.00;2334008;75;50616;-78
2023/06/14 05:38:25;;;;;;;;;;;;;;;24.71;35.17;101196.36;2335432;75;51494;-77
2023/06/14 05:41:27;;;;;;;;;;;;;;;24.73;35.18;101203.75;2292320;76;51657;-77
2023/06/14 05:44:28;;;;;;;;;;;;;;;24.73;35.21;101209.98;2279038;76;50097;-78
2023/06/14 05:47:30;;;;;;;;;;;;;;;24.75;35.19;101208.44;2297989;76;49974;-78
2023/06/14 05:50:32;;;;;;;;;;;;;;;24.73;35.31;101210.52;2278889;77;50627;-77
2023/06/14 05:53:33;;;;;;;;;;;;;;;24.74;35.25;101205.44;2278739;77;52465;-76
2023/06/14 05:56:35;;;;;;;;;;;;;;;24.75;35.30;101213.84;2278676;77;51432;-77
2023/06/14 05:59:36;;;;;;;;;;;;;;;24.75;35.32;101213.84;2298491;77;51502;-76
2023/06/14 06:02:38;;;;;;;;;;;;;;;24.75;35.29;101226.03;2298189;77;50433;-77
2023/06/14 06:05:40;;;;;;;;;;;;;;;24.73;35.45;101217.28;2279186;77;50805;-77
2023/06/14 06:08:42;;;;;;;;;;;;;;;24.74;35.52;101227.09;2280407;76;51560;-76
2023/06/14 06:11:44;;;;;;;;;;;;;;;24.73;35.53;101212.70;2310387;75;50298;-77
2023/06/14 06:14:45;;;;;;;;;;;;;;;24.73;35.64;101220.81;2279608;77;50666;-77
2023/06/14 06:17:47;;;;;;;;;;;;;;;24.73;35.62;101219.46;2297720;76;51581;-76
2023/06/14 06:20:48;;;;;;;;;;;;;;;24.72;35.56;101224.58;2278719;77;51468;-77
2023/06/14 06:23:50;;;;;;;;;;;;;;;24.73;35.53;101226.23;2278832;77;50353;-76
2023/06/14 06:26:52;;;;;;;;;;;;;;;24.74;35.54;101213.55;2278641;77;50263;-77
2023/06/14 06:29:53;;;;;;;;;;;;;;;24.73;35.50;101216.75;2254113;77;51199;-77
2023/06/14 06:32:58;;;;;;;;;;;;;;;24.73;35.52;101217.28;2279236;77;51498;-78
2023/06/14 06:35:59;;;;;;;;;;;;;;;24.71;35.63;101213.95;2297712;76;50014;-77
2023/06/14 06:39:01;;;;;;;;;;;;;;;24.69;35.66;101217.41;2302732;75;50711;-77
2023/06/14 06:42:03;;;;;;;;;;;;;;;24.70;35.60;101215.00;2286818;76;51122;-77
2023/06/14 06:45:05;;;;;;;;;;;;;;;24.69;35.55;101220.94;2278773;77;49891;-76
2023/06/14 06:48:06;;;;;;;;;;;;;;;24.70;35.53;101221.77;2278459;77;50153;-76
2023/06/14 06:51:08;;;;;;;;;;;;;;;24.71;35.52;101227.48;2278572;77;52487;-76
2023/06/14 06:54:09;;;;;;;;;;;;;;;24.72;35.47;101228.63;2278316;77;52316;-75
2023/06/14 06:57:11;;;;;;;;;;;;;;;24.72;35.47;101231.87;2278193;77;51496;-75
2023/06/14 07:00:13;;;;;;;;;;;;;;;24.74;35.43;101233.85;2278454;77;50668;-76
2023/06/14 07:03:14;;;;;;;;;;;;;;;24.74;35.41;101240.09;2278210;77;53554;-76
2023/06/14 07:06:18;;;;;;;;;;;;;;;24.73;35.40;101232.99;2278090;77;52241;-76
2023/06/14 07:09:20;;;;;;;;;;;;;;;24.76;35.37;101241.21;2286478;75;22826;-76
2023/06/14 07:12:22;;;;;;;;;;;;;;;24.76;35.35;101241.21;2335132;74;51511;-75
2023/06/14 07:15:23;;;;;;;;;;;;;;;24.78;35.34;101245.91;2335956;75;50471;-75
2023/06/14 07:18:25;;;;;;;;;;;;;;;24.79;35.33;101250.29;2334066;75;51202;-74
2023/06/14 07:21:26;;;;;;;;;;;;;;;24.80;35.31;101253.30;2358732;75;50630;-75
2023/06/14 07:24:28;;;;;;;;;;;;;;;24.80;35.29;101256.00;2352486;74;50660;-75
2023/06/14 07:27:30;;;;;;;;;;;;;;;24.79;35.29;101259.77;2357021;74;50385;-75
2023/06/14 07:30:31;;;;;;;;;;;;;;;24.80;35.33;101260.06;2332522;75;50628;-75
2023/06/14 07:33:33;;;;;;;;;;;;;;;24.80;35.37;101267.36;2337066;75;51384;-77
2023/06/14 07:36:36;;;;;;;;;;;;;;;24.83;35.44;101264.23;2333893;75;50252;-79
2023/06/14 07:39:38;;;;;;;;;;;;;;;24.87;35.56;101274.96;2331762;75;51632;-77
2023/06/14 07:42:39;;;;;;;;;;;;;;;24.89;35.53;101267.44;2281666;75;52225;-77
2023/06/14 07:45:41;;;;;;;;;;;;;;;24.89;35.53;101270.14;2333299;75;50322;-77
2023/06/14 07:48:42;;;;;;;;;;;;;;;24.88;35.52;101267.96;2350379;74;50396;-76
2023/06/14 07:51:44;;;;;;;;;;;;;;;24.89;35.55;101267.44;2350285;75;50431;-75
2023/06/14 07:54:46;;;;;;;;;;;;;;;24.89;35.54;101261.52;2306829;75;51689;-76
2023/06/14 07:57:48;;;;;;;;;;;;;;;24.90;35.52;101265.06;2349947;74;50314;-75
2023/06/14 08:00:49;;;;;;;;;;;;;;;24.89;35.57;101260.67;2332460;75;50266;-75
2023/06/14 08:03:51;;;;;;;;;;;;;;;24.89;35.60;101257.95;2350029;75;50634;-76
2023/06/14 08:06:52;;;;;;;;;;;;;;;24.88;35.62;101244.95;2332400;75;49544;-75
2023/06/14 08:09:54;;;;;;;;;;;;;;;24.89;35.64;101248.48;2337821;75;50219;-75
2023/06/14 08:12:56;;;;;;;;;;;;;;;24.90;35.67;101242.05;2309608;76;50542;-74
2023/06/14 08:15:58;;;;;;;;;;;;;;;24.89;35.68;101242.58;2278127;77;52205;-74
2023/06/14 08:19:00;;;;;;;;;;;;;;;24.89;35.68;101252.05;2253415;77;52386;-75
2023/06/14 08:22:03;;;;;;;;;;;;;;;24.90;35.73;101240.17;2278568;77;51770;-75
2023/06/14 08:25:06;;;;;;;;;;;;;;;24.90;35.69;101249.64;2278665;77;51568;-75
2023/06/14 08:28:08;;;;;;;;;;;;;;;24.91;35.68;101245.88;2278421;77;50131;-75
2023/06/14 08:31:09;;;;;;;;;;;;;;;24.88;35.67;101254.42;2278164;76;51232;-75
2023/06/14 08:34:11;;;;;;;;;;;;;;;24.89;35.70;101253.41;2297517;77;50281;-75
2023/06/14 08:37:13;;;;;;;;;;;;;;;24.89;35.70;101243.93;2297288;76;50257;-74
2023/06/14 08:40:21;;;;;;;;;;;;;;;24.88;35.74;101246.83;2289116;76;51554;-74
2023/06/14 08:43:23;;;;;;;;;;;;;;;24.89;35.80;101243.93;2280954;77;51269;-76
2023/06/14 08:46:27;;;;;;;;;;;;;;;24.89;35.86;101239.87;2297231;77;50170;-75
2023/06/14 08:49:29;;;;;;;;;;;;;;;24.90;35.85;101236.11;2297542;76;50626;-75
2023/06/14 08:52:33;;;;;;;;;;;;;;;24.90;35.85;101248.28;2297611;77;50374;-75
2023/06/14 08:55:38;;;;;;;;;;;;;;;24.90;35.83;101253.70;2278250;77;51162;-76
2023/06/14 08:58:43;;;;;;;;;;;;;;;24.91;35.80;101255.36;2278742;77;22437;-75
2023/06/14 09:01:41;;;;;;;;;;;;;;;24.90;35.77;101255.05;2297352;77;22795;-76
2023/06/14 09:04:44;;;;;;;;;;;;;;;24.91;35.79;101262.12;2297522;77;50331;-76
2023/06/14 09:07:48;;;;;;;;;;;;;;;24.91;35.76;101257.23;2253520;77;51808;-75
2023/06/14 09:10:49;;;;;;;;;;;;;;;24.90;35.79;101263.17;2314436;75;22306;-74
2023/06/14 09:13:50;;;;;;;;;;;;;;;24.91;35.79;101257.23;2291252;76;50397;-75
2023/06/14 09:16:53;;;;;;;;;;;;;;;24.92;35.79;101252.12;2321951;76;50337;-75
2023/06/14 09:19:55;;;;;;;;;;;;;;;24.91;35.80;101248.59;2293115;76;51795;-75
2023/06/14 09:22:57;;;;;;;;;;;;;;;24.92;35.78;101261.09;2322081;76;50460;-75
2023/06/14 09:25:58;;;;;;;;;;;;;;;24.90;35.80;101250.99;2322176;76;50617;-75
2023/06/14 09:29:00;;;;;;;;;;;;;;;24.92;35.80;101249.41;2322040;75;51454;-76
2023/06/14 09:32:02;;;;;;;;;;;;;;;24.92;35.85;101263.80;2293303;76;50516;-75
2023/06/14 09:35:03;;;;;;;;;;;;;;;24.92;35.78;101265.16;2322168;76;50229;-75
2023/06/14 09:38:06;;;;;;;;;;;;;;;24.93;35.78;101265.45;2321724;76;52337;-75
2023/06/14 09:41:08;;;;;;;;;;;;;;;24.94;35.85;101265.75;2311861;75;51571;-75
2023/06/14 09:44:10;;;;;;;;;;;;;;;24.93;35.81;101269.52;2283410;76;52487;-74
2023/06/14 09:47:11;;;;;;;;;;;;;;;24.94;35.84;101257.63;2293093;76;50480;-74
2023/06/14 09:50:13;;;;;;;;;;;;;;;24.92;35.80;101258.39;2323480;75;51404;-75
2023/06/14 09:53:14;;;;;;;;;;;;;;;24.93;35.82;101256.51;2323142;75;50646;-76
2023/06/14 09:56:18;;;;;;;;;;;;;;;24.93;35.83;101264.10;2321970;76;50662;-75
2023/06/14 09:59:21;;;;;;;;;;;;;;;24.93;35.84;101260.57;2321169;76;51510;-76
2023/06/14 10:02:24;;;;;;;;;;;;;;;24.93;35.82;101259.22;2320801;76;50273;-74
2023/06/14 10:05:28;;;;;;;;;;;;;;;24.94;35.85;101260.34;2322088;76;50298;-75
2023/06/14 10:08:33;;;;;;;;;;;;;;;24.96;35.85;101268.27;2322163;76;22316;-76
2023/06/14 10:11:35;;;;;;;;;;;;;;;24.94;35.83;101258.98;2322358;76;22276;-77
2023/06/14 10:14:36;;;;;;;;;;;;;;;24.94;35.86;101260.34;2322084;75;51539;-76
2023/06/14 10:17:40;;;;;;;;;;;;;;;24.94;35.82;101262.22;2321904;75;51514;-75
2023/06/14 10:20:46;;;;;;;;;;;;;;;24.94;35.83;101260.34;2284756;76;52666;-75
2023/06/14 10:23:47;;;;;;;;;;;;;;;24.93;35.84;101251.92;2321961;75;51493;-76
2023/06/14 10:26:53;;;;;;;;;;;;;;;24.93;35.82;101254.63;2310389;76;51552;-76
2023/06/14 10:29:56;;;;;;;;;;;;;;;24.94;35.81;101258.98;2297537;76;51634;-76
2023/06/14 10:33:10;;;;;;;;;;;;;;;24.92;35.87;101244.86;2278492;77;52593;-76
2023/06/14 10:36:09;;;;;;;;;;;;;;;24.94;36.18;101250.86;2278140;77;22385;-76
2023/06/14 10:39:17;;;;;;;;;;;;;;;24.92;36.26;101247.56;2278377;77;51600;-76
2023/06/14 10:42:19;;;;;;;;;;;;;;;24.91;36.34;101240.98;2297506;76;50359;-76
2023/06/14 10:45:21;;;;;;;;;;;;;;;24.92;36.47;101246.20;2278885;77;52403;-75
2023/06/14 10:48:27;;;;;;;;;;;;;;;24.93;36.39;101245.16;2278218;77;49954;-76
2023/06/14 10:51:30;;;;;;;;;;;;;;;24.94;36.32;101239.20;2297495;77;50281;-76
2023/06/14 10:54:31;;;;;;;;;;;;;;;24.95;36.33;101244.42;2304103;75;51517;-74
2023/06/14 10:57:33;;;;;;;;;;;;;;;24.94;36.41;101232.44;2288984;76;52461;-75
2023/06/14 11:00:38;;;;;;;;;;;;;;;24.94;36.38;101233.27;2293599;76;50162;-74
2023/06/14 11:03:46;;;;;;;;;;;;;;;24.95;36.36;101237.66;2322416;76;22358;-75
2023/06/14 11:06:49;;;;;;;;;;;;;;;24.96;36.31;101232.54;2321084;76;50760;-75
2023/06/14 11:09:59;;;;;;;;;;;;;;;24.95;36.27;101231.42;2267962;76;53006;-75
2023/06/14 11:13:01;;;;;;;;;;;;;;;24.94;36.27;101230.56;2321815;75;51616;-75
2023/06/14 11:16:02;;;;;;;;;;;;;;;24.96;36.24;101226.30;2322136;76;51419;-73
2023/06/14 11:19:04;;;;;;;;;;;;;;;24.97;36.21;101213.06;2321928;76;51477;-74
2023/06/14 11:22:06;;;;;;;;;;;;;;;24.95;36.21;101207.05;2292908;76;51750;-74
2023/06/14 11:25:09;;;;;;;;;;;;;;;24.95;36.21;101211.11;2322890;75;50320;-74
2023/06/14 11:28:11;;;;;;;;;;;;;;;24.96;36.18;101201.94;2313406;75;50422;-74
2023/06/14 11:31:13;;;;;;;;;;;;;;;24.97;36.18;101202.23;2322125;76;50650;-74
2023/06/14 11:34:15;;;;;;;;;;;;;;;24.95;36.19;101203.81;2293021;76;52500;-75
2023/06/14 11:37:17;;;;;;;;;;;;;;;24.97;36.14;101205.80;2321824;76;50316;-74
2023/06/14 11:40:19;;;;;;;;;;;;;;;24.98;36.16;101201.20;2321911;76;51499;-75
2023/06/14 11:43:21;;;;;;;;;;;;;;;24.97;36.13;101193.61;2322021;76;50353;-74
2023/06/14 11:46:24;;;;;;;;;;;;;;;24.97;36.13;101190.91;2292768;76;52793;-75
2023/06/14 11:49:27;;;;;;;;;;;;;;;24.97;36.13;101192.27;2321946;76;51520;-74
2023/06/14 11:52:29;;;;;;;;;;;;;;;24.98;36.10;101184.44;2293635;76;51645;-75
2023/06/14 11:55:30;;;;;;;;;;;;;;;24.98;36.10;101175.48;2316388;75;50696;-74
2023/06/14 11:58:32;;;;;;;;;;;;;;;24.98;36.11;101174.95;2291832;76;52466;-75
2023/06/14 12:01:35;;;;;;;;;;;;;;;24.97;36.11;101167.03;2322057;76;51567;-74
2023/06/14 12:04:37;;;;;;;;;;;;;;;24.97;36.11;101168.39;2322149;75;51408;-74
2023/06/14 12:07:45;;;;;;;;;;;;;;;24.97;36.15;101167.89;2293082;75;51401;-74
2023/06/14 12:10:45;;;;;;;;;;;;;;;24.96;36.13;101160.80;2291748;76;22331;-74
2023/06/14 12:13:46;;;;;;;;;;;;;;;24.97;36.13;101160.27;2322121;75;51401;-74
2023/06/14 12:16:48;;;;;;;;;;;;;;;24.97;36.13;101162.48;2321942;75;51397;-74
2023/06/14 12:19:50;;;;;;;;;;;;;;;24.96;36.13;101151.84;2322161;75;50234;-74
2023/06/14 12:22:53;;;;;;;;;;;;;;;24.96;36.11;101147.27;2293268;76;50054;-74
2023/06/14 12:25:55;;;;;;;;;;;;;;;24.97;36.08;101132.70;2322485;75;50715;-74
2023/06/14 12:28:56;;;;;;;;;;;;;;;24.99;36.09;101141.41;2253309;77;51262;-74
2023/06/14 12:31:58;;;;;;;;;;;;;;;25.00;36.05;101130.08;2297573;76;50745;-74
2023/06/14 12:35:00;;;;;;;;;;;;;;;25.00;36.02;101136.85;2253723;76;51511;-74
2023/06/14 12:38:03;;;;;;;;;;;;;;;25.01;36.00;101137.15;2278238;77;50286;-74
2023/06/14 12:41:04;;;;;;;;;;;;;;;25.01;35.96;101130.38;2308319;75;25706;-74
2023/06/14 12:44:06;;;;;;;;;;;;;;;25.03;35.93;101128.30;2322179;76;51555;-74
2023/06/14 12:47:08;;;;;;;;;;;;;;;25.03;35.90;101135.06;2292488;76;51028;-75
2023/06/14 12:50:10;;;;;;;;;;;;;;;25.03;35.92;101127.47;2293249;76;51503;-74
2023/06/14 12:53:12;;;;;;;;;;;;;;;25.03;35.93;101128.83;2293192;76;50768;-74
2023/06/14 12:56:13;;;;;;;;;;;;;;;25.01;35.97;101123.61;2321886;76;51510;-74
2023/06/14 12:59:15;;;;;;;;;;;;;;;25.01;35.94;101118.73;2292895;76;51024;-74
2023/06/14 13:02:17;;;;;;;;;;;;;;;25.02;35.96;101116.31;2322204;76;51967;-75
2023/06/14 13:05:19;;;;;;;;;;;;;;;25.03;35.94;101118.00;2322252;76;51439;-75
2023/06/14 13:08:20;;;;;;;;;;;;;;;25.02;35.92;101109.02;2321762;76;50636;-75
2023/06/14 13:11:22;;;;;;;;;;;;;;;25.03;36.00;101112.58;2253746;76;52301;-74
2023/06/14 13:14:24;;;;;;;;;;;;;;;25.02;35.94;101106.31;2293402;76;51421;-75
2023/06/14 13:17:26;;;;;;;;;;;;;;;25.03;35.90;101103.92;2321931;76;50668;-75
2023/06/14 13:20:27;;;;;;;;;;;;;;;25.04;35.90;101099.34;2292975;76;51541;-75
2023/06/14 13:23:29;;;;;;;;;;;;;;;25.03;35.95;101094.98;2267787;76;52182;-74
2023/06/14 13:26:30;;;;;;;;;;;;;;;25.02;35.95;101090.59;2321743;76;51399;-75
2023/06/14 13:29:33;;;;;;;;;;;;;;;25.03;35.94;101103.92;2322147;76;50286;-74
2023/06/14 13:32:34;;;;;;;;;;;;;;;25.04;35.91;101090.69;2293615;76;51594;-75
2023/06/14 13:35:36;;;;;;;;;;;;;;;25.06;35.90;101091.31;2267705;76;52854;-74
2023/06/14 13:38:38;;;;;;;;;;;;;;;25.06;35.96;101085.06;2292870;76;51473;-75
2023/06/14 13:41:39;;;;;;;;;;;;;;;25.04;36.01;101083.09;2313628;75;50292;-74
2023/06/14 13:44:41;;;;;;;;;;;;;;;25.05;36.05;101076.62;2322032;76;51486;-75
2023/06/14 13:47:42;;;;;;;;;;;;;;;25.04;36.04;101076.33;2267446;76;52313;-73
2023/06/14 13:50:45;;;;;;;;;;;;;;;25.03;36.08;101076.03;2293140;76;51503;-74
2023/06/14 13:53:48;;;;;;;;;;;;;;;25.04;36.10;101068.20;2293407;76;51407;-75
2023/06/14 13:56:50;;;;;;;;;;;;;;;25.04;36.05;101070.38;2321831;76;51407;-75
2023/06/14 13:59:55;;;;;;;;;;;;;;;25.04;36.05;101066.31;2292737;76;52411;-74
2023/06/14 14:02:57;;;;;;;;;;;;;;;25.05;36.08;101065.79;2322027;76;22329;-75
2023/06/14 14:05:58;;;;;;;;;;;;;;;25.05;36.08;101063.08;2322026;76;50757;-75
2023/06/14 14:09:00;;;;;;;;;;;;;;;25.05;36.03;101061.73;2322006;75;51472;-74
2023/06/14 14:12:02;;;;;;;;;;;;;;;25.04;36.03;101062.26;2313673;76;50298;-75
2023/06/14 14:15:12;;;;;;;;;;;;;;;25.04;36.05;101060.08;2293432;76;51569;-75
2023/06/14 14:18:09;;;;;;;;;;;;;;;25.05;36.13;101057.66;2321215;76;22451;-74
2023/06/14 14:21:11;;;;;;;;;;;;;;;25.03;36.07;101056.55;2322096;76;51572;-75
2023/06/14 14:24:13;;;;;;;;;;;;;;;25.04;36.05;101054.13;2293126;76;52230;-74
2023/06/14 14:27:15;;;;;;;;;;;;;;;25.05;36.02;101056.31;2293217;76;50664;-73
2023/06/14 14:30:17;;;;;;;;;;;;;;;25.06;35.99;101052.58;2322250;76;50343;-74
2023/06/14 14:33:18;;;;;;;;;;;;;;;25.07;35.92;101048.28;2322125;76;51465;-75
2023/06/14 14:36:20;;;;;;;;;;;;;;;25.08;35.96;101045.08;2293004;76;49215;-75
2023/06/14 14:39:22;;;;;;;;;;;;;;;25.07;35.95;101052.34;2322304;75;50373;-75
2023/06/14 14:42:23;;;;;;;;;;;;;;;25.07;35.92;101052.88;2313706;76;51492;-75
2023/06/14 14:45:25;;;;;;;;;;;;;;;25.06;35.92;101046.63;2322239;76;50241;-74
2023/06/14 14:48:26;;;;;;;;;;;;;;;25.06;35.97;101051.22;2292587;76;49608;-74
2023/06/14 14:51:28;;;;;;;;;;;;;;;25.05;35.95;101054.46;2322309;76;50324;-75
2023/06/14 14:54:30;;;;;;;;;;;;;;;25.04;35.97;101051.42;2322149;76;50477;-75
2023/06/14 14:57:32;;;;;;;;;;;;;;;25.03;35.97;101053.84;2292932;76;50364;-75
2023/06/14 15:00:34;;;;;;;;;;;;;;;25.04;35.89;101056.84;2293143;76;52424;-75
2023/06/14 15:03:36;;;;;;;;;;;;;;;25.05;35.87;101057.17;2322198;76;50693;-74
2023/06/14 15:06:39;;;;;;;;;;;;;;;25.06;35.85;101058.81;2321966;76;50639;-75
2023/06/14 15:09:41;;;;;;;;;;;;;;;25.07;35.82;101054.23;2322355;75;52200;-75
2023/06/14 15:12:43;;;;;;;;;;;;;;;25.04;35.85;101064.96;2289517;75;49681;-74
2023/06/14 15:15:45;;;;;;;;;;;;;;;25.03;35.82;101051.13;2293140;76;50443;-75
2023/06/14 15:18:46;;;;;;;;;;;;;;;25.01;35.87;101061.34;2322028;76;50402;-75
2023/06/14 15:21:48;;;;;;;;;;;;;;;25.01;35.82;101074.88;2293211;75;50734;-75
2023/06/14 15:24:49;;;;;;;;;;;;;;;25.01;35.84;101065.41;2322184;75;50616;-74
2023/06/14 15:27:51;;;;;;;;;;;;;;;24.99;35.85;101062.90;2321964;75;51560;-75
2023/06/14 15:30:52;;;;;;;;;;;;;;;25.00;35.85;101065.11;2293227;76;51581;-74
2023/06/14 15:33:54;;;;;;;;;;;;;;;24.98;35.88;101069.38;2293251;76;51391;-74
2023/06/14 15:36:56;;;;;;;;;;;;;;;25.01;35.81;101069.99;2267497;76;51031;-74
2023/06/14 15:39:57;;;;;;;;;;;;;;;24.99;35.79;101066.95;2319119;75;50646;-74